Time;durP1;ratioP1;P1;durP2;ratioP2;P2;SDS_P1;SDS_P2;PMS_P1;PMS_P2;Temp;Humidity;BMP_temperature;BMP_pressure;BME280_temperature;BME280_humidity;BME280_pressure;Samples;Min_cycle;Max_cycle;Signal;HPM_P1;HPM_P2
2023/03/24 00:01:51;;;;;;;0.50;0.50;;;;;;;5.45;96.12;97147.19;5006452;28;20060;-58
2023/03/24 00:04:18;;;;;;;0.50;0.50;;;;;;;5.46;96.00;97154.28;5006962;28;20108;-57
2023/03/24 00:06:48;;;;;;;0.47;0.47;;;;;;;5.41;96.43;97146.22;5006736;28;20520;-58
2023/03/24 00:09:15;;;;;;;0.50;0.50;;;;;;;5.41;95.86;97148.97;5005399;28;20058;-57
2023/03/24 00:11:43;;;;;;;0.50;0.50;;;;;;;5.46;96.11;97143.28;5004146;28;20120;-58
2023/03/24 00:14:11;;;;;;;0.50;0.50;;;;;;;5.48;96.32;97146.50;5006554;28;20100;-57
2023/03/24 00:16:41;;;;;;;0.50;0.50;;;;;;;5.61;95.97;97142.69;5006620;28;20133;-56
2023/03/24 00:19:13;;;;;;;0.50;0.50;;;;;;;5.62;95.87;97147.03;5004882;28;20054;-55
2023/03/24 00:21:41;;;;;;;0.50;0.50;;;;;;;5.69;94.78;97137.13;5006586;28;20282;-57
2023/03/24 00:24:10;;;;;;;0.50;0.50;;;;;;;5.42;94.27;97125.88;5006105;28;20137;-55
2023/03/24 00:26:38;;;;;;;0.40;0.40;;;;;;;5.52;94.31;97142.75;5006279;28;20107;-55
2023/03/24 00:29:10;;;;;;;0.50;0.50;;;;;;;5.49;94.04;97142.63;5006215;28;20088;-57
2023/03/24 00:31:38;;;;;;;0.50;0.50;;;;;;;5.47;92.94;97147.66;5006383;28;20054;-56
2023/03/24 00:34:07;;;;;;;0.50;0.50;;;;;;;5.44;91.87;97134.56;5005981;28;20107;-58
2023/03/24 00:36:35;;;;;;;0.50;0.50;;;;;;;5.25;90.18;97153.47;5005807;28;20056;-56
2023/03/24 00:39:04;;;;;;;0.50;0.50;;;;;;;5.14;89.56;97146.78;5004667;28;20468;-55
2023/03/24 00:41:32;;;;;;;0.50;0.50;;;;;;;4.57;88.73;97084.13;5006271;28;20080;-57
2023/03/24 00:44:02;;;;;;;0.50;0.50;;;;;;;4.55;89.14;97111.06;5006022;28;20116;-57
2023/03/24 00:46:29;;;;;;;0.40;0.40;;;;;;;4.91;90.82;97137.19;5005996;28;20491;-57
2023/03/24 00:49:01;;;;;;;0.50;0.50;;;;;;;4.93;93.63;97134.94;5005454;28;20081;-57
2023/03/24 00:51:37;;;;;;;0.50;0.50;;;;;;;4.88;94.17;97129.63;5006415;28;20505;-57
2023/03/24 00:54:05;;;;;;;0.50;0.50;;;;;;;4.79;95.11;97115.16;5005636;28;20512;-56
2023/03/24 00:56:34;;;;;;;0.40;0.40;;;;;;;4.86;95.03;97118.19;5005695;28;20574;-55
2023/03/24 00:59:01;;;;;;;0.50;0.50;;;;;;;4.29;95.94;97055.56;5005276;28;20148;-57
2023/03/24 01:01:33;;;;;;;0.43;0.43;;;;;;;4.64;98.32;97111.03;5006299;28;20161;-55
2023/03/24 01:04:02;;;;;;;0.50;0.50;;;;;;;4.90;96.74;97113.66;5005760;28;20054;-57
2023/03/24 01:06:29;;;;;;;0.45;0.45;;;;;;;4.95;96.42;97116.22;5005717;28;20057;-56
2023/03/24 01:08:55;;;;;;;0.50;0.50;;;;;;;3.38;96.36;96870.97;5005578;28;20119;-57
2023/03/24 01:11:25;;;;;;;0.47;0.47;;;;;;;4.82;96.92;97111.75;5004518;28;20116;-56
2023/03/24 01:13:53;;;;;;;0.40;0.40;;;;;;;4.78;96.90;97102.56;5005343;28;20054;-56
2023/03/24 01:16:24;;;;;;;0.45;0.45;;;;;;;4.82;96.72;97117.25;5004867;28;20049;-56
2023/03/24 01:18:51;;;;;;;0.47;0.47;;;;;;;4.36;96.43;97055.84;5005249;28;20053;-56
2023/03/24 01:21:18;;;;;;;0.40;0.40;;;;;;;4.29;94.69;97049.25;5005133;28;20069;-57
2023/03/24 01:23:45;;;;;;;0.50;0.50;;;;;;;4.51;94.65;97090.13;5005284;28;20077;-56
2023/03/24 01:26:11;;;;;;;0.40;0.40;;;;;;;4.62;93.79;97108.63;5005260;28;20084;-55
2023/03/24 01:28:42;;;;;;;0.50;0.50;;;;;;;4.56;94.84;97101.72;5004770;28;20050;-56
2023/03/24 01:31:10;;;;;;;0.43;0.43;;;;;;;4.59;97.15;97098.31;5005166;28;20046;-57
2023/03/24 01:33:37;;;;;;;0.40;0.40;;;;;;;4.57;98.95;97099.78;5005055;28;20140;-55
2023/03/24 01:36:05;;;;;;;0.40;0.40;;;;;;;4.41;100.00;97074.84;5005053;28;20042;-56
2023/03/24 01:38:32;;;;;;;0.40;0.40;;;;;;;4.71;100.00;97094.06;5004959;28;20093;-56
2023/03/24 01:40:59;;;;;;;0.50;0.50;;;;;;;4.69;99.98;97086.94;5004853;28;20042;-57
2023/03/24 01:43:31;;;;;;;0.40;0.40;;;;;;;4.68;98.34;97083.75;5004669;28;20120;-56
2023/03/24 01:46:04;;;;;;;0.40;0.40;;;;;;;4.59;97.88;97076.38;5005309;28;20100;-57
2023/03/24 01:48:34;;;;;;;0.40;0.40;;;;;;;4.48;98.28;97069.66;5005017;28;20057;-55
2023/03/24 01:51:11;;;;;;;0.40;0.40;;;;;;;4.19;98.98;97066.88;5005135;28;20054;-57
2023/03/24 01:53:43;;;;;;;0.40;0.40;;;;;;;4.30;99.79;97070.88;5004686;28;20144;-57
2023/03/24 01:56:11;;;;;;;0.40;0.40;;;;;;;4.01;100.00;97040.69;5005147;28;20045;-56
2023/03/24 01:58:42;;;;;;;0.40;0.40;;;;;;;3.92;99.34;97009.75;5004222;28;20064;-55
2023/03/24 02:01:09;;;;;;;0.40;0.40;;;;;;;4.46;98.44;97077.41;5004581;28;20085;-57
2023/03/24 02:03:37;;;;;;;0.43;0.43;;;;;;;4.45;97.36;97081.28;5003182;28;20675;-55
2023/03/24 02:06:05;;;;;;;0.40;0.40;;;;;;;3.59;97.44;96967.66;5004697;28;20046;-56
2023/03/24 02:08:41;;;;;;;0.40;0.40;;;;;;;4.34;96.37;97107.47;5004507;28;20157;-56
2023/03/24 02:11:08;;;;;;;0.40;0.40;;;;;;;4.28;94.93;97092.31;5004939;28;20493;-55
2023/03/24 02:13:34;;;;;;;0.40;0.40;;;;;;;4.17;94.12;97101.25;5004462;28;20089;-55
2023/03/24 02:16:07;;;;;;;0.40;0.40;;;;;;;4.17;93.62;97113.00;5035818;28;20093;-57
2023/03/24 02:18:46;;;;;;;0.50;0.50;;;;;;;4.29;93.25;97106.84;5004243;28;20513;-57
2023/03/24 02:21:40;;;;;;;0.43;0.43;;;;;;;4.14;94.42;97107.38;5004534;28;20105;-57
2023/03/24 02:24:42;;;;;;;0.47;0.47;;;;;;;4.09;96.16;97118.53;5002953;28;20085;-57
2023/03/24 02:27:42;;;;;;;0.40;0.40;;;;;;;4.10;96.87;97112.72;5004075;28;20050;-56
2023/03/24 02:30:20;;;;;;;0.40;0.40;;;;;;;4.18;98.01;97117.38;5004352;28;20061;-57
2023/03/24 02:33:15;;;;;;;0.50;0.50;;;;;;;4.04;98.67;97096.78;5004846;28;20049;-56
2023/03/24 02:35:52;;;;;;;0.40;0.40;;;;;;;3.75;98.50;97050.91;5007094;28;20517;-55
2023/03/24 02:38:56;;;;;;;0.40;0.40;;;;;;;4.11;98.87;97103.34;5008380;28;20441;-57
2023/03/24 02:41:32;;;;;;;0.40;0.40;;;;;;;4.04;100.00;97108.53;5008577;28;20058;-56
2023/03/24 02:44:09;;;;;;;0.40;0.40;;;;;;;4.06;100.00;97109.00;5007895;28;20552;-58
2023/03/24 02:46:41;;;;;;;0.40;0.40;;;;;;;1.79;100.00;96872.44;5008384;28;20056;-57
2023/03/24 02:49:08;;;;;;;0.40;0.40;;;;;;;3.86;100.00;97117.91;5008024;28;20053;-57
2023/03/24 02:51:58;;;;;;;0.40;0.40;;;;;;;3.93;100.00;97111.94;5006826;28;20500;-56
2023/03/24 02:54:48;;;;;;;0.50;0.50;;;;;;;3.96;100.00;97112.09;5007812;28;20054;-57
2023/03/24 02:57:39;;;;;;;0.40;0.40;;;;;;;4.08;100.00;97120.44;5008234;28;20042;-56
2023/03/24 03:00:17;;;;;;;0.40;0.40;;;;;;;4.12;100.00;97120.59;5007240;28;20066;-57
2023/03/24 03:02:55;;;;;;;0.40;0.40;;;;;;;4.11;100.00;97136.25;5006872;28;20054;-55
2023/03/24 03:05:28;;;;;;;0.40;0.40;;;;;;;4.21;100.00;97140.56;5007853;28;20432;-57
2023/03/24 03:07:57;;;;;;;0.50;0.50;;;;;;;4.29;100.00;97132.31;4994790;28;20493;-57
2023/03/24 03:10:29;;;;;;;0.40;0.40;;;;;;;4.22;99.84;97131.22;4987935;28;20138;-55
2023/03/24 03:13:01;;;;;;;0.40;0.40;;;;;;;4.16;98.89;97116.88;4988084;28;20061;-57
2023/03/24 03:15:34;;;;;;;0.40;0.40;;;;;;;4.23;99.93;97100.75;4988130;28;20047;-57
2023/03/24 03:18:10;;;;;;;0.45;0.45;;;;;;;4.06;100.00;97073.38;4986844;28;20516;-56
2023/03/24 03:20:49;;;;;;;0.40;0.40;;;;;;;3.88;100.00;97038.13;4987995;28;20429;-55
2023/03/24 03:23:23;;;;;;;0.50;0.50;;;;;;;3.62;100.00;96986.19;4988174;28;20050;-56
2023/03/24 03:25:57;;;;;;;0.50;0.50;;;;;;;4.14;100.00;97058.84;4986240;28;20476;-56
2023/03/24 03:28:28;;;;;;;0.47;0.47;;;;;;;4.03;98.85;97051.31;4987895;28;20062;-58
2023/03/24 03:30:59;;;;;;;0.40;0.40;;;;;;;3.52;98.84;96985.72;4987595;28;20053;-57
2023/03/24 03:33:33;;;;;;;0.40;0.40;;;;;;;3.23;100.00;97054.03;4987891;28;20065;-57
2023/03/24 03:36:02;;;;;;;0.43;0.43;;;;;;;3.42;100.00;97085.44;4987815;28;20103;-55
2023/03/24 03:38:58;;;;;;;0.40;0.40;;;;;;;3.54;100.00;97071.09;4987572;28;20851;-55
2023/03/24 03:41:25;;;;;;;0.40;0.40;;;;;;;3.58;100.00;97070.13;4987506;28;20058;-56
2023/03/24 03:43:52;;;;;;;0.40;0.40;;;;;;;3.68;100.00;97072.53;4987260;28;20046;-55
2023/03/24 03:46:19;;;;;;;0.40;0.40;;;;;;;3.39;100.00;97014.91;4987353;28;20315;-55
2023/03/24 03:48:46;;;;;;;0.40;0.40;;;;;;;3.89;100.00;97089.88;4987682;28;20496;-56
2023/03/24 03:51:13;;;;;;;0.40;0.40;;;;;;;4.03;98.59;97085.00;4986018;28;20054;-57
2023/03/24 03:54:02;;;;;;;0.40;0.40;;;;;;;3.62;97.66;97024.50;4985778;28;20104;-56
2023/03/24 03:56:31;;;;;;;0.50;0.50;;;;;;;4.02;98.78;97071.63;4987051;28;20646;-55
2023/03/24 03:58:58;;;;;;;0.45;0.45;;;;;;;4.08;99.38;97082.06;4986713;28;20062;-56
2023/03/24 04:01:27;;;;;;;0.40;0.40;;;;;;;3.62;98.82;97030.00;4987158;28;20062;-57
2023/03/24 04:04:19;;;;;;;0.40;0.40;;;;;;;4.04;98.62;97091.28;4986882;28;20065;-55
2023/03/24 04:07:23;;;;;;;0.40;0.40;;;;;;;3.95;99.17;97088.56;4987137;28;20132;-55
2023/03/24 04:10:23;;;;;;;0.40;0.40;;;;;;;3.92;100.00;97089.22;4974512;28;20085;-55
2023/03/24 04:13:25;;;;;;;0.40;0.40;;;;;;;3.80;100.00;97086.34;4987014;28;20061;-56
2023/03/24 04:15:52;;;;;;;0.45;0.45;;;;;;;3.93;100.00;97090.84;4963020;28;20145;-56
2023/03/24 04:18:43;;;;;;;0.40;0.40;;;;;;;4.06;100.00;97091.78;4984275;28;20050;-56
2023/03/24 04:21:41;;;;;;;0.40;0.40;;;;;;;3.68;100.00;97036.94;4985580;28;20058;-57
2023/03/24 04:24:10;;;;;;;0.40;0.40;;;;;;;4.14;100.00;97083.50;4985541;28;20630;-57
2023/03/24 04:27:05;;;;;;;0.47;0.47;;;;;;;4.08;99.61;97053.84;4985226;28;20054;-55
2023/03/24 04:29:51;;;;;;;0.40;0.40;;;;;;;4.15;100.00;97087.88;4984546;28;20058;-55
2023/03/24 04:32:29;;;;;;;0.40;0.40;;;;;;;4.31;99.99;97080.72;4986566;28;20094;-58
2023/03/24 04:35:00;;;;;;;0.40;0.40;;;;;;;4.19;99.87;97061.41;4986721;28;20069;-56
2023/03/24 04:37:32;;;;;;;0.40;0.40;;;;;;;4.35;99.55;97087.13;4986249;28;20065;-55
2023/03/24 04:40:04;;;;;;;0.50;0.50;;;;;;;4.44;99.96;97085.16;4986563;28;20054;-57
2023/03/24 04:42:35;;;;;;;0.40;0.40;;;;;;;4.62;98.07;97089.44;4986430;28;20089;-55
2023/03/24 04:45:04;;;;;;;0.50;0.50;;;;;;;3.86;96.97;97019.28;4986718;28;20448;-56
2023/03/24 04:47:37;;;;;;;0.40;0.40;;;;;;;3.83;100.00;97093.09;4986432;28;20057;-55
2023/03/24 04:50:09;;;;;;;0.47;0.47;;;;;;;3.81;100.00;97060.56;4986305;28;20054;-57
2023/03/24 04:52:41;;;;;;;0.47;0.47;;;;;;;4.26;99.74;97102.81;4986324;28;20229;-58
2023/03/24 04:55:23;;;;;;;0.43;0.43;;;;;;;4.43;98.36;97102.75;4986145;28;20058;-57
2023/03/24 04:57:51;;;;;;;0.50;0.50;;;;;;;4.47;97.19;97092.72;4985549;28;20100;-57
2023/03/24 05:00:17;;;;;;;0.40;0.40;;;;;;;4.61;97.34;97101.53;4984700;28;20058;-56
2023/03/24 05:02:44;;;;;;;0.43;0.43;;;;;;;4.07;95.64;96997.44;4986574;28;20050;-59
2023/03/24 05:05:11;;;;;;;0.50;0.50;;;;;;;4.56;95.88;97065.25;4986337;28;20046;-57
2023/03/24 05:07:38;;;;;;;0.50;0.50;;;;;;;4.94;94.44;97098.13;4986170;28;20053;-55
2023/03/24 05:10:06;;;;;;;0.40;0.40;;;;;;;5.23;95.52;97111.81;4986435;28;20086;-56
2023/03/24 05:12:33;;;;;;;0.50;0.50;;;;;;;5.33;94.91;97128.69;4986167;28;20490;-57
2023/03/24 05:15:00;;;;;;;0.50;0.50;;;;;;;5.27;94.82;97101.75;4986322;28;20568;-57
2023/03/24 05:17:26;;;;;;;0.40;0.40;;;;;;;5.06;94.29;97051.53;4985685;28;20064;-55
2023/03/24 05:19:53;;;;;;;0.50;0.50;;;;;;;5.35;94.52;97081.66;4984095;28;20054;-57
2023/03/24 05:22:20;;;;;;;0.50;0.50;;;;;;;5.87;93.30;97132.31;4986166;28;20068;-56
2023/03/24 05:24:46;;;;;;;0.50;0.50;;;;;;;5.98;92.64;97130.72;4985826;28;20078;-56
2023/03/24 05:27:13;;;;;;;0.50;0.50;;;;;;;6.29;91.63;97133.00;4985437;28;20058;-57
2023/03/24 05:29:39;;;;;;;0.50;0.50;;;;;;;5.99;89.53;97129.63;4985481;28;20519;-57
2023/03/24 05:32:06;;;;;;;0.57;0.57;;;;;;;5.29;90.51;97088.50;4983768;28;20374;-57
2023/03/24 05:34:33;;;;;;;0.50;0.50;;;;;;;5.12;91.68;97007.06;4983870;28;20509;-56
2023/03/24 05:36:59;;;;;;;0.60;0.60;;;;;;;6.24;90.79;97128.53;4985279;28;20077;-56
2023/03/24 05:39:26;;;;;;;0.55;0.55;;;;;;;6.55;90.51;97137.06;4985145;28;20086;-57
2023/03/24 05:41:52;;;;;;;0.60;0.60;;;;;;;6.87;90.35;97129.88;4985177;28;20089;-55
2023/03/24 05:44:19;;;;;;;0.60;0.60;;;;;;;7.02;90.68;97138.22;4985631;28;20054;-58
2023/03/24 05:46:46;;;;;;;0.60;0.60;;;;;;;7.25;89.84;97139.38;4985267;28;20050;-56
2023/03/24 05:49:13;;;;;;;0.60;0.60;;;;;;;7.33;88.62;97134.88;4981840;28;20081;-55
2023/03/24 05:51:40;;;;;;;0.68;0.68;;;;;;;7.37;88.35;97122.81;4964470;28;20594;-54
2023/03/24 05:54:07;;;;;;;0.60;0.60;;;;;;;7.42;88.28;97100.53;4965800;28;20050;-55
2023/03/24 05:56:34;;;;;;;0.60;0.60;;;;;;;7.48;86.80;97070.75;4965990;28;20109;-58
2023/03/24 05:59:00;;;;;;;0.70;0.70;;;;;;;7.99;87.10;97135.25;4963750;28;20054;-56
2023/03/24 06:01:27;;;;;;;0.60;0.60;;;;;;;8.21;86.94;97131.91;4965413;28;20617;-55
2023/03/24 06:03:54;;;;;;;0.70;0.70;;;;;;;7.94;86.75;97050.81;4965335;28;20074;-56
2023/03/24 06:06:21;;;;;;;0.60;0.60;;;;;;;8.09;85.39;97140.25;4965998;28;20050;-55
2023/03/24 06:08:48;;;;;;;0.70;0.70;;;;;;;7.60;88.89;97134.91;4964457;28;20117;-56
2023/03/24 06:11:15;;;;;;;0.70;0.70;;;;;;;7.27;92.20;97142.56;4965028;28;20054;-56
2023/03/24 06:13:42;;;;;;;0.70;0.70;;;;;;;7.21;93.48;97119.16;4979916;28;20054;-57
2023/03/24 06:16:08;;;;;;;0.70;0.70;;;;;;;7.48;93.03;97120.38;4965448;28;20062;-57
2023/03/24 06:18:35;;;;;;;0.70;0.70;;;;;;;7.96;89.54;97141.47;4965419;28;20055;-57
2023/03/24 06:21:02;;;;;;;0.70;0.70;;;;;;;8.18;87.12;97141.72;4965326;28;20126;-56
2023/03/24 06:23:29;;;;;;;0.68;0.68;;;;;;;8.43;86.36;97145.16;4978992;28;20054;-57
2023/03/24 06:26:00;;;;;;;0.70;0.70;;;;;;;8.03;87.35;97095.56;4984730;28;20954;-56
2023/03/24 06:28:29;;;;;;;0.70;0.70;;;;;;;7.85;91.60;97151.38;4984626;28;20054;-56
2023/03/24 06:30:57;;;;;;;0.70;0.70;;;;;;;7.57;94.33;97167.91;4984902;28;20046;-55
2023/03/24 06:33:24;;;;;;;0.60;0.60;;;;;;;7.32;94.62;97111.22;4984618;28;20137;-55
2023/03/24 06:35:52;;;;;;;0.60;0.60;;;;;;;7.64;93.47;97119.28;4984425;28;20097;-54
2023/03/24 06:38:19;;;;;;;0.70;0.70;;;;;;;8.11;91.47;97160.81;4984476;28;20104;-55
2023/03/24 06:40:46;;;;;;;0.65;0.65;;;;;;;8.16;92.79;97157.00;4980652;28;20053;-55
2023/03/24 06:43:12;;;;;;;0.65;0.65;;;;;;;8.32;91.05;97095.22;4981276;28;20437;-57
2023/03/24 06:45:39;;;;;;;0.63;0.63;;;;;;;9.08;89.24;97166.59;4970687;28;20078;-53
2023/03/24 06:48:06;;;;;;;0.70;0.70;;;;;;;9.41;87.45;97158.69;4975869;28;20088;-53
2023/03/24 06:50:34;;;;;;;0.70;0.70;;;;;;;9.67;85.42;97139.56;4984117;28;20109;-55
2023/03/24 06:53:01;;;;;;;0.80;0.80;;;;;;;10.14;84.04;97158.75;4984361;28;20046;-58
2023/03/24 06:55:28;;;;;;;0.80;0.80;;;;;;;10.13;82.53;97105.34;4979992;28;20156;-54
2023/03/24 06:57:54;;;;;;;0.90;0.90;;;;;;;10.28;81.31;97090.63;4984077;28;20054;-57
2023/03/24 07:00:22;;;;;;;0.90;0.90;;;;;;;10.86;80.48;97151.41;4982280;28;20492;-53
2023/03/24 07:02:48;;;;;;;0.80;0.80;;;;;;;11.07;79.65;97135.94;4984583;28;20449;-57
2023/03/24 07:05:15;;;;;;;0.90;0.90;;;;;;;8.18;78.25;96641.56;4967863;28;20078;-55
2023/03/24 07:07:42;;;;;;;0.93;0.93;;;;;;;10.37;81.02;97102.25;4982881;28;20082;-54
2023/03/24 07:10:12;;;;;;;0.80;0.80;;;;;;;11.14;79.34;97141.63;4984051;28;20477;-56
2023/03/24 07:12:39;;;;;;;0.90;0.90;;;;;;;11.40;78.60;97149.13;4983266;28;20074;-54
2023/03/24 07:15:07;;;;;;;0.90;0.90;;;;;;;10.67;78.21;97053.34;4982341;28;20129;-58
2023/03/24 07:17:34;;;;;;;0.90;0.90;;;;;;;11.70;75.98;97136.13;4988076;28;20108;-56
2023/03/24 07:20:01;;;;;;;0.90;0.90;;;;;;;11.74;74.53;97137.81;4983123;28;20092;-57
2023/03/24 07:22:27;;;;;;;1.00;1.00;;;;;;;9.66;72.31;96761.81;4987445;28;20489;-54
2023/03/24 07:24:56;;;;;;;1.00;1.00;;;;;;;11.45;76.01;97119.13;4976376;28;20510;-57
2023/03/24 07:27:23;;;;;;;1.05;1.05;;;;;;;12.01;76.00;97133.78;4968439;28;20047;-55
2023/03/24 07:29:50;;;;;;;0.98;0.98;;;;;;;12.24;75.28;97128.13;4981263;28;20082;-56
2023/03/24 07:32:17;;;;;;;1.00;1.00;;;;;;;12.34;73.58;97110.78;4970692;28;20085;-57
2023/03/24 07:34:45;;;;;;;1.00;1.00;;;;;;;11.85;76.38;97132.38;4983045;28;20054;-53
2023/03/24 07:37:11;;;;;;;1.13;1.13;;;;;;;12.29;75.97;97126.97;4985574;28;20054;-59
2023/03/24 07:39:38;;;;;;;1.00;1.00;;;;;;;12.37;73.83;97132.25;4985887;28;20086;-56
2023/03/24 07:42:05;;;;;;;1.10;1.10;;;;;;;12.46;74.21;97138.28;4994347;28;20054;-58
2023/03/24 07:44:31;;;;;;;1.00;1.00;;;;;;;11.65;74.25;97006.06;4986123;28;20492;-57
2023/03/24 07:46:58;;;;;;;1.00;1.00;;;;;;;12.03;75.99;97111.19;4968126;28;20059;-58
2023/03/24 07:49:26;;;;;;;1.00;1.00;;;;;;;12.34;75.65;97133.00;4967850;28;20494;-54
2023/03/24 07:51:52;;;;;;;1.10;1.10;;;;;;;12.50;74.31;97139.16;4986006;28;20065;-58
2023/03/24 07:54:19;;;;;;;1.10;1.10;;;;;;;12.89;73.80;97140.34;4984966;28;20050;-56
2023/03/24 07:56:46;;;;;;;1.05;1.05;;;;;;;12.54;72.35;97070.50;4983198;28;20046;-57
2023/03/24 07:59:12;;;;;;;1.10;1.10;;;;;;;12.84;71.80;97118.44;4967250;28;20145;-57
2023/03/24 08:01:39;;;;;;;1.10;1.10;;;;;;;13.37;69.93;97130.06;4967725;28;20094;-57
2023/03/24 08:04:06;;;;;;;1.10;1.10;;;;;;;13.10;69.88;97137.75;4961502;28;20062;-58
2023/03/24 08:06:33;;;;;;;1.20;1.20;;;;;;;13.22;69.40;97129.13;4967304;28;20138;-57
2023/03/24 08:09:00;;;;;;;1.13;1.13;;;;;;;13.21;69.17;97087.81;4966154;28;20554;-56
2023/03/24 08:11:26;;;;;;;1.10;1.10;;;;;;;13.86;68.13;97122.03;4971630;28;20148;-54
2023/03/24 08:13:53;;;;;;;1.10;1.10;;;;;;;14.03;66.51;97128.84;4966678;28;20077;-57
2023/03/24 08:16:20;;;;;;;1.20;1.20;;;;;;;14.36;65.57;97120.28;4967204;28;20052;-57
2023/03/24 08:18:47;;;;;;;1.30;1.30;;;;;;;14.68;64.17;97121.97;4966821;28;20530;-54
2023/03/24 08:21:14;;;;;;;1.30;1.30;;;;;;;14.88;63.44;97108.44;4967362;28;20492;-54
2023/03/24 08:23:41;;;;;;;1.40;1.40;;;;;;;15.17;62.42;97110.06;4968266;28;20561;-58
2023/03/24 08:26:09;;;;;;;1.50;1.50;;;;;;;15.32;60.61;97106.06;4970648;28;20433;-58
2023/03/24 08:28:36;;;;;;;1.40;1.40;;;;;;;15.49;60.07;97099.69;4967141;28;20050;-61
2023/03/24 08:31:03;;;;;;;1.60;1.60;;;;;;;13.88;58.39;96804.19;4976947;28;20093;-58
2023/03/24 08:33:30;;;;;;;1.50;1.50;;;;;;;15.89;58.48;97090.84;4966572;28;20050;-56
2023/03/24 08:35:59;;;;;;;1.50;1.50;;;;;;;15.15;58.70;97023.16;4972123;28;20051;-59
2023/03/24 08:38:30;;;;;;;1.50;1.50;;;;;;;15.55;59.25;97095.31;4986134;28;20539;-54
2023/03/24 08:41:00;;;;;;;1.40;1.40;;;;;;;15.81;58.81;97083.69;4983244;28;20490;-54
2023/03/24 08:43:29;;;;;;;1.40;1.40;;;;;;;15.92;58.66;97090.03;4966775;28;20050;-56
2023/03/24 08:46:00;;;;;;;1.67;1.67;;;;;;;15.92;58.13;97084.44;4973247;28;20129;-54
2023/03/24 08:48:29;;;;;;;1.60;1.60;;;;;;;15.79;57.75;97074.13;4980093;28;20058;-58
2023/03/24 08:50:55;;;;;;;1.40;1.40;;;;;;;15.66;58.32;97075.75;4983743;28;20129;-57
2023/03/24 08:53:22;;;;;;;1.50;1.50;;;;;;;15.77;58.66;97076.53;4979664;28;20050;-56
2023/03/24 08:55:49;;;;;;;1.40;1.40;;;;;;;15.89;58.20;97062.91;4966351;28;20166;-57
2023/03/24 08:58:18;;;;;;;1.38;1.38;;;;;;;15.96;57.46;97068.47;4981403;28;20054;-55
2023/03/24 09:00:47;;;;;;;1.40;1.40;;;;;;;16.10;57.67;97064.81;4978132;28;20078;-55
2023/03/24 09:03:21;;;;;;;1.40;1.40;;;;;;;16.45;56.71;97061.88;4966098;28;20089;-61
2023/03/24 09:05:48;;;;;;;1.40;1.40;;;;;;;16.47;55.82;97028.72;4969735;28;20085;-56
2023/03/24 09:08:17;;;;;;;1.33;1.33;;;;;;;16.57;55.21;97069.78;4983691;28;20060;-59
2023/03/24 09:10:45;;;;;;;1.50;1.50;;;;;;;16.14;56.47;97055.22;4984695;28;20094;-56
2023/03/24 09:13:12;;;;;;;1.50;1.50;;;;;;;16.27;57.04;97055.56;4985827;28;20093;-60
2023/03/24 09:15:44;;;;;;;1.40;1.40;;;;;;;16.14;56.84;97041.25;4984222;28;20054;-54
2023/03/24 09:18:10;;;;;;;1.60;1.60;;;;;;;16.13;56.37;97053.63;4983018;28;20057;-60
2023/03/24 09:20:37;;;;;;;1.50;1.50;;;;;;;16.55;55.73;97050.63;4982981;28;20525;-59
2023/03/24 09:23:04;;;;;;;1.40;1.40;;;;;;;17.01;54.31;97043.94;4972136;28;20137;-58
2023/03/24 09:25:31;;;;;;;1.52;1.52;;;;;;;17.24;52.87;97035.72;4985231;28;20095;-58
2023/03/24 09:27:57;;;;;;;1.52;1.52;;;;;;;17.39;51.83;97031.56;4984232;28;20050;-58
2023/03/24 09:30:24;;;;;;;1.38;1.38;;;;;;;17.70;51.38;97036.09;4983618;28;20050;-60
2023/03/24 09:32:51;;;;;;;1.50;1.50;;;;;;;17.51;52.01;97019.88;4973151;28;20073;-60
2023/03/24 09:35:18;;;;;;;1.42;1.42;;;;;;;15.57;52.75;96819.28;4985083;28;20077;-64
2023/03/24 09:37:45;;;;;;;1.60;1.60;;;;;;;17.37;53.00;97036.81;4973101;28;20541;-60
2023/03/24 09:40:23;;;;;;;1.52;1.52;;;;;;;16.79;52.63;96919.41;4984068;28;20085;-62
2023/03/24 09:43:31;;;;;;;1.60;1.60;;;;;;;17.66;52.05;97024.09;4984042;28;20104;-54
2023/03/24 09:46:01;;;;;;;1.55;1.55;;;;;;;17.59;50.68;96990.59;4983069;28;20105;-57
2023/03/24 09:48:35;;;;;;;1.70;1.70;;;;;;;17.91;50.90;97019.81;4984501;28;20053;-55
2023/03/24 09:51:11;;;;;;;1.42;1.42;;;;;;;18.08;50.32;97018.00;4999093;28;20505;-59
2023/03/24 09:53:59;;;;;;;1.50;1.50;;;;;;;17.36;50.61;97012.78;5001470;28;20312;-55
2023/03/24 09:56:28;;;;;;;1.60;1.60;;;;;;;16.78;49.79;96906.59;4988605;28;20054;-59
2023/03/24 09:59:01;;;;;;;1.50;1.50;;;;;;;17.56;49.92;96991.44;5004554;28;20060;-61
2023/03/24 10:01:27;;;;;;;1.73;1.73;;;;;;;17.95;49.94;97002.97;5002142;28;20148;-57
2023/03/24 10:03:57;;;;;;;1.75;1.75;;;;;;;18.46;48.65;97011.13;4998737;28;20502;-53
2023/03/24 10:06:43;;;;;;;1.73;1.73;;;;;;;18.86;47.87;96995.25;5002425;28;20133;-55
2023/03/24 10:09:27;;;;;;;1.65;1.65;;;;;;;18.48;47.57;97003.06;5030802;28;20057;-56
2023/03/24 10:12:15;;;;;;;1.70;1.70;;;;;;;18.79;46.67;96996.19;4984834;28;20054;-55
2023/03/24 10:15:00;;;;;;;1.70;1.70;;;;;;;18.94;46.01;96986.28;4984869;28;20054;-60
2023/03/24 10:18:15;;;;;;;1.67;1.67;;;;;;;19.34;44.12;96982.41;4992897;28;20125;-53
2023/03/24 10:20:42;;;;;;;1.70;1.70;;;;;;;19.55;41.91;96982.00;5002346;28;20060;-57
2023/03/24 10:23:24;;;;;;;1.90;1.90;;;;;;;19.73;41.33;96972.47;4997157;28;20050;-55
2023/03/24 10:26:04;;;;;;;1.88;1.88;;;;;;;17.96;39.48;96668.19;4999517;28;20566;-57
2023/03/24 10:29:10;;;;;;;2.13;2.13;;;;;;;19.44;39.38;96969.41;5004176;28;20057;-53
2023/03/24 10:31:37;;;;;;;1.70;1.70;;;;;;;19.49;39.25;96964.06;5004806;28;20620;-53
2023/03/24 10:34:09;;;;;;;2.00;2.00;;;;;;;19.66;39.47;96962.16;4991226;28;20077;-54
2023/03/24 10:36:38;;;;;;;2.00;2.00;;;;;;;19.84;39.19;96961.78;4995168;28;20045;-53
2023/03/24 10:39:05;;;;;;;2.05;2.05;;;;;;;20.03;38.36;96961.00;5003645;28;20046;-54
2023/03/24 10:41:47;;;;;;;2.17;2.17;;;;;;;20.12;37.97;96958.38;5003973;28;20072;-60
2023/03/24 10:44:14;;;;;;;2.20;2.20;;;;;;;20.24;38.02;96955.72;5002398;28;20143;-54
2023/03/24 10:46:54;;;;;;;1.80;1.80;;;;;;;20.13;37.63;96959.94;4991697;28;20057;-57
2023/03/24 10:49:22;;;;;;;2.10;2.10;;;;;;;20.13;37.07;96954.31;5004618;28;20057;-58
2023/03/24 10:51:55;;;;;;;2.20;2.20;;;;;;;20.11;36.95;96945.50;4999569;28;20104;-56
2023/03/24 10:54:27;;;;;;;1.90;1.90;;;;;;;20.31;36.79;96937.88;4984549;28;20050;-59
2023/03/24 10:56:57;;;;;;;2.05;2.05;;;;;;;20.23;36.32;96942.09;5019108;28;20054;-55
2023/03/24 10:59:43;;;;;;;2.00;2.00;;;;;;;19.68;35.92;96939.22;4987561;28;20077;-55
2023/03/24 11:02:10;;;;;;;1.60;1.60;;;;;;;20.11;36.98;96925.84;4987557;28;20054;-55
2023/03/24 11:04:39;;;;;;;1.90;1.90;;;;;;;20.40;35.97;96918.38;4998948;28;20045;-55
2023/03/24 11:07:19;;;;;;;1.92;1.92;;;;;;;20.85;34.95;96919.25;5007259;28;20076;-55
2023/03/24 11:10:03;;;;;;;1.98;1.98;;;;;;;20.05;34.97;96874.13;5004343;28;20053;-56
2023/03/24 11:12:32;;;;;;;2.15;2.15;;;;;;;20.50;34.41;96937.03;5007358;28;20477;-57
2023/03/24 11:15:19;;;;;;;2.10;2.10;;;;;;;20.60;33.84;96905.00;4985944;28;20493;-57
2023/03/24 11:17:55;;;;;;;2.00;2.00;;;;;;;20.55;34.40;96908.38;5003531;28;20414;-57
2023/03/24 11:20:28;;;;;;;2.15;2.15;;;;;;;20.66;34.24;96904.03;5007149;28;20144;-58
2023/03/24 11:23:09;;;;;;;2.20;2.20;;;;;;;20.66;34.41;96892.03;5004920;28;20056;-58
2023/03/24 11:25:39;;;;;;;2.10;2.10;;;;;;;20.86;33.84;96890.69;5007153;28;20053;-54
2023/03/24 11:28:14;;;;;;;2.10;2.10;;;;;;;20.61;33.89;96802.47;5007690;28;20050;-57
2023/03/24 11:30:50;;;;;;;2.53;2.42;;;;;;;21.12;33.65;96846.56;5003410;28;20050;-53
2023/03/24 11:33:19;;;;;;;2.13;2.13;;;;;;;21.42;33.69;96876.34;4993735;28;20077;-59
2023/03/24 11:36:25;;;;;;;2.22;2.22;;;;;;;21.54;33.55;96878.38;5007150;28;20141;-56
2023/03/24 11:39:10;;;;;;;2.50;2.40;;;;;;;21.73;32.94;96858.50;5003784;28;20141;-55
2023/03/24 11:41:40;;;;;;;2.10;2.10;;;;;;;20.89;33.42;96821.41;4985844;28;20054;-54
2023/03/24 11:44:17;;;;;;;2.13;2.13;;;;;;;21.02;33.43;96856.09;5017692;28;20612;-53
2023/03/24 11:46:52;;;;;;;2.30;2.30;;;;;;;21.20;33.81;96853.56;4995212;28;20054;-58
2023/03/24 11:49:24;;;;;;;2.17;2.17;;;;;;;21.37;33.38;96849.47;5004275;28;20536;-55
2023/03/24 11:51:54;;;;;;;2.13;2.13;;;;;;;20.84;32.90;96848.09;5006824;28;20050;-57
2023/03/24 11:54:26;;;;;;;2.20;2.20;;;;;;;21.19;32.89;96846.38;4989688;28;20054;-54
2023/03/24 11:56:59;;;;;;;2.08;2.08;;;;;;;19.30;34.52;96762.59;4986809;28;20150;-57
2023/03/24 11:59:35;;;;;;;1.90;1.90;;;;;;;19.47;35.11;96817.59;4999969;28;20083;-55